Time;durP1;ratioP1;P1;durP2;ratioP2;P2;SDS_P1;SDS_P2;PMS_P1;PMS_P2;Temp;Humidity;BMP_temperature;BMP_pressure;BME280_temperature;BME280_humidity;BME280_pressure;Samples;Min_cycle;Max_cycle;Signal;HPM_P1;HPM_P2
2021/06/19 00:00:41;;;;;;;11.37;10.27;;;24.70;99.90;;;;;;5097079;28;20413;-80
2021/06/19 00:03:09;;;;;;;10.00;9.17;;;24.50;99.90;;;;;;5083091;28;20450;-79
2021/06/19 00:05:38;;;;;;;11.70;9.73;;;24.50;99.90;;;;;;5077317;28;20412;-80
2021/06/19 00:08:08;;;;;;;11.70;10.53;;;24.50;99.90;;;;;;5079319;28;20848;-80
2021/06/19 00:10:37;;;;;;;10.97;9.90;;;24.50;99.90;;;;;;5081781;28;20410;-80
2021/06/19 00:13:06;;;;;;;9.30;8.50;;;24.50;99.90;;;;;;5080776;28;20831;-80
2021/06/19 00:15:34;;;;;;;10.60;9.80;;;24.40;99.90;;;;;;5080668;28;20769;-81
2021/06/19 00:18:02;;;;;;;10.80;9.90;;;24.40;99.90;;;;;;5081521;28;20476;-81
2021/06/19 00:20:30;;;;;;;10.63;9.83;;;24.40;99.90;;;;;;5081761;28;20428;-81
2021/06/19 00:22:58;;;;;;;11.17;9.43;;;24.30;99.90;;;;;;5080427;28;20469;-81
2021/06/19 00:25:29;;;;;;;11.13;10.20;;;24.30;99.90;;;;;;5080342;28;21022;-81
2021/06/19 00:27:58;;;;;;;10.33;9.53;;;24.30;99.90;;;;;;5098406;28;20433;-80
2021/06/19 00:30:26;;;;;;;10.13;9.30;;;24.30;99.90;;;;;;5081910;28;20435;-81
2021/06/19 00:32:54;;;;;;;11.40;10.40;;;24.20;99.90;;;;;;5083619;28;20457;-81
2021/06/19 00:35:23;;;;;;;12.00;10.80;;;24.20;99.90;;;;;;5086286;28;20427;-81
2021/06/19 00:37:51;;;;;;;11.30;10.40;;;24.10;99.90;;;;;;5087502;28;20421;-81
2021/06/19 00:40:21;;;;;;;10.93;9.87;;;24.10;99.90;;;;;;5083187;28;20413;-80
2021/06/19 00:42:59;;;;;;;9.90;9.00;;;24.10;99.90;;;;;;5082170;28;20455;-80
2021/06/19 00:45:29;;;;;;;11.73;10.73;;;24.10;99.90;;;;;;5083182;28;20391;-81
2021/06/19 00:47:57;;;;;;;10.90;9.87;;;24.00;99.90;;;;;;5081230;28;20454;-80
2021/06/19 00:50:27;;;;;;;11.00;10.10;;;24.00;99.90;;;;;;5083253;28;20449;-79
2021/06/19 00:52:56;;;;;;;9.77;8.97;;;24.00;99.90;;;;;;5098875;28;20441;-80
2021/06/19 00:55:24;;;;;;;10.93;10.03;;;24.00;99.90;;;;;;5100009;28;20412;-79
2021/06/19 00:57:52;;;;;;;9.83;8.93;;;24.00;99.90;;;;;;5099798;28;20398;-80
2021/06/19 01:00:23;;;;;;;10.63;9.77;;;24.00;99.90;;;;;;5098735;28;20444;-78
2021/06/19 01:02:55;;;;;;;12.33;11.10;;;24.00;99.90;;;;;;5098870;28;20433;-79
2021/06/19 01:05:24;;;;;;;10.20;9.20;;;23.90;99.90;;;;;;5099768;28;20475;-79
2021/06/19 01:07:53;;;;;;;10.23;9.30;;;23.90;99.90;;;;;;5098544;28;20421;-80
2021/06/19 01:10:21;;;;;;;13.03;11.73;;;23.90;99.90;;;;;;5099554;28;20406;-79
2021/06/19 01:12:49;;;;;;;12.83;11.63;;;23.80;99.90;;;;;;5099229;28;20422;-79
2021/06/19 01:15:18;;;;;;;11.90;11.00;;;23.80;99.90;;;;;;5099735;28;20381;-79
2021/06/19 01:17:47;;;;;;;11.63;10.43;;;23.80;99.90;;;;;;5094130;28;20435;-80
2021/06/19 01:20:17;;;;;;;9.40;8.70;;;23.70;99.90;;;;;;5097001;28;20443;-80
2021/06/19 01:22:49;;;;;;;11.20;10.20;;;23.70;99.90;;;;;;5087920;28;20432;-79
2021/06/19 01:25:20;;;;;;;11.00;9.97;;;23.70;99.90;;;;;;5105240;28;20817;-79
2021/06/19 01:27:50;;;;;;;11.83;10.80;;;23.70;99.90;;;;;;5087504;28;20807;-79
2021/06/19 01:30:20;;;;;;;12.40;11.10;;;23.70;99.90;;;;;;5082520;28;20429;-79
2021/06/19 01:32:48;;;;;;;11.47;10.37;;;23.60;99.90;;;;;;5078199;28;20462;-80
2021/06/19 01:35:17;;;;;;;10.67;9.57;;;23.70;99.90;;;;;;5079653;28;20446;-80
2021/06/19 01:37:47;;;;;;;11.63;10.60;;;23.70;99.90;;;;;;5086543;28;20394;-79
2021/06/19 01:40:16;;;;;;;9.27;8.43;;;23.70;99.90;;;;;;5093231;28;20468;-80
2021/06/19 01:42:48;;;;;;;11.93;9.73;;;23.70;99.90;;;;;;5088349;28;20494;-81
2021/06/19 01:45:19;;;;;;;12.30;11.27;;;23.70;99.90;;;;;;5086599;28;20428;-81
2021/06/19 01:47:48;;;;;;;12.23;10.93;;;23.60;99.90;;;;;;5087076;28;20477;-81
2021/06/19 01:50:19;;;;;;;11.47;10.37;;;23.60;99.90;;;;;;5079377;28;20413;-81
2021/06/19 01:52:48;;;;;;;11.83;10.83;;;23.50;99.90;;;;;;5078370;28;20825;-81
2021/06/19 01:55:16;;;;;;;11.40;10.30;;;23.40;99.90;;;;;;5078720;28;20413;-81
2021/06/19 01:57:45;;;;;;;10.77;9.77;;;23.20;99.90;;;;;;5077973;28;20444;-81
2021/06/19 02:00:16;;;;;;;11.83;10.70;;;23.20;99.90;;;;;;5079660;28;20434;-81
2021/06/19 02:02:45;;;;;;;10.57;9.53;;;23.10;99.90;;;;;;5079740;28;20459;-80
2021/06/19 02:05:16;;;;;;;10.73;9.83;;;23.30;99.90;;;;;;5077684;28;20438;-81
2021/06/19 02:07:49;;;;;;;10.30;9.43;;;23.20;99.90;;;;;;5077969;28;20466;-81
2021/06/19 02:10:19;;;;;;;12.07;10.97;;;23.20;99.90;;;;;;5077837;28;20441;-80
2021/06/19 02:12:48;;;;;;;10.20;9.40;;;23.30;99.90;;;;;;5077981;28;20561;-80
2021/06/19 02:15:18;;;;;;;11.50;10.40;;;23.20;99.90;;;;;;5079614;28;20406;-80
2021/06/19 02:17:47;;;;;;;13.73;12.43;;;23.10;99.90;;;;;;5078223;28;20474;-81
2021/06/19 02:20:16;;;;;;;12.00;9.40;;;23.20;99.90;;;;;;5078287;28;20842;-82
2021/06/19 02:22:45;;;;;;;11.53;10.60;;;23.20;99.90;;;;;;5077532;28;20445;-81
2021/06/19 02:25:15;;;;;;;12.03;10.93;;;23.20;99.90;;;;;;5079872;28;20513;-81
2021/06/19 02:27:48;;;;;;;11.70;9.97;;;23.20;99.90;;;;;;5079485;28;20798;-81
2021/06/19 02:30:19;;;;;;;11.93;10.73;;;23.10;99.90;;;;;;5078887;28;20417;-81
2021/06/19 02:32:47;;;;;;;10.27;9.27;;;23.20;99.90;;;;;;5079016;28;20446;-82
2021/06/19 02:35:16;;;;;;;12.50;11.23;;;23.20;99.90;;;;;;5079624;28;20419;-82
2021/06/19 02:37:44;;;;;;;11.17;10.27;;;23.10;99.90;;;;;;5079306;28;20434;-81
2021/06/19 02:40:13;;;;;;;11.23;10.33;;;23.10;99.90;;;;;;5078255;28;20430;-82
2021/06/19 02:42:42;;;;;;;13.20;9.93;;;23.10;99.90;;;;;;5078326;28;20436;-82
2021/06/19 02:45:12;;;;;;;10.63;9.70;;;23.10;99.90;;;;;;5077594;28;20416;-81
2021/06/19 02:47:43;;;;;;;10.20;9.40;;;23.10;99.90;;;;;;5077304;28;20465;-80
2021/06/19 02:50:13;;;;;;;11.80;10.80;;;23.00;99.90;;;;;;5076542;28;20447;-81
2021/06/19 02:52:43;;;;;;;11.73;10.73;;;23.10;99.90;;;;;;5075705;28;20457;-80
2021/06/19 02:55:14;;;;;;;11.93;10.83;;;23.20;99.90;;;;;;5074762;28;20412;-81
2021/06/19 02:57:43;;;;;;;11.13;10.10;;;23.20;99.90;;;;;;5074906;28;20966;-80
2021/06/19 03:00:14;;;;;;;14.10;10.10;;;23.20;99.90;;;;;;5092589;28;20438;-80
2021/06/19 03:02:44;;;;;;;10.47;9.50;;;23.20;99.90;;;;;;5076747;28;20457;-80
2021/06/19 03:05:16;;;;;;;11.63;9.53;;;23.20;99.90;;;;;;5077691;28;20423;-81
2021/06/19 03:07:45;;;;;;;11.10;9.97;;;23.20;99.90;;;;;;5077326;28;20457;-81
2021/06/19 03:10:15;;;;;;;12.70;11.37;;;23.10;99.90;;;;;;5077155;28;20426;-81
2021/06/19 03:12:45;;;;;;;11.00;10.10;;;23.10;99.90;;;;;;5076769;28;20524;-80
2021/06/19 03:15:14;;;;;;;10.30;9.50;;;23.10;99.90;;;;;;5077322;28;20429;-81
2021/06/19 03:17:44;;;;;;;11.47;10.37;;;23.10;99.90;;;;;;5078446;28;20464;-81
2021/06/19 03:20:14;;;;;;;11.47;10.47;;;23.20;99.90;;;;;;5078562;28;20433;-81
2021/06/19 03:22:48;;;;;;;12.20;11.17;;;23.30;99.90;;;;;;5078817;23;21071;-70
2021/06/19 03:25:19;;;;;;;11.13;10.23;;;23.30;99.90;;;;;;5049851;28;20490;-67
2021/06/19 03:27:47;;;;;;;11.20;10.30;;;23.40;99.90;;;;;;5049674;28;20455;-67
2021/06/19 03:30:18;;;;;;;11.23;10.23;;;23.40;99.90;;;;;;5039021;28;20424;-68
2021/06/19 03:32:49;;;;;;;10.07;9.20;;;23.40;99.90;;;;;;5068942;28;20456;-69
2021/06/19 03:35:17;;;;;;;12.27;11.13;;;23.50;99.90;;;;;;5069331;28;20418;-68
2021/06/19 03:37:46;;;;;;;11.13;10.03;;;23.60;99.90;;;;;;5069454;28;20795;-69
2021/06/19 03:40:16;;;;;;;12.33;11.23;;;23.80;99.90;;;;;;5069445;28;20420;-69
2021/06/19 03:42:46;;;;;;;11.37;10.27;;;24.70;99.90;;;;;;5072941;28;20531;-68
2021/06/19 03:45:15;;;;;;;11.63;10.53;;;25.90;99.90;;;;;;5073021;28;20484;-68
2021/06/19 03:47:44;;;;;;;10.67;9.80;;;27.20;99.90;;;;;;5073361;28;20780;-69
2021/06/19 03:50:17;;;;;;;11.03;10.13;;;28.30;99.90;;;;;;5072928;28;20438;-69
2021/06/19 03:52:51;;;;;;;11.30;10.30;;;29.20;99.90;;;;;;5054984;28;20426;-69
2021/06/19 03:55:19;;;;;;;12.10;11.10;;;30.00;99.90;;;;;;5073052;28;20429;-69
2021/06/19 03:57:47;;;;;;;10.00;9.20;;;30.50;99.90;;;;;;5072875;28;20480;-69
2021/06/19 04:00:18;;;;;;;11.50;10.50;;;30.80;99.90;;;;;;5072550;28;20560;-68
2021/06/19 04:02:47;;;;;;;11.67;10.77;;;31.30;99.90;;;;;;5072421;28;20418;-69
2021/06/19 04:05:17;;;;;;;10.77;9.90;;;31.70;99.90;;;;;;5073004;28;20423;-69
2021/06/19 04:07:46;;;;;;;11.20;10.30;;;32.00;99.90;;;;;;5072637;28;20448;-68
2021/06/19 04:10:16;;;;;;;10.70;9.90;;;32.10;99.90;;;;;;5072466;28;20441;-69
2021/06/19 04:12:46;;;;;;;10.07;9.27;;;32.50;99.90;;;;;;5072401;28;20830;-67
2021/06/19 04:15:14;;;;;;;11.23;10.40;;;32.60;99.90;;;;;;5072779;28;20413;-68
2021/06/19 04:17:43;;;;;;;10.90;10.00;;;33.00;99.90;;;;;;5072361;28;20934;-68
2021/06/19 04:20:13;;;;;;;10.03;9.17;;;33.30;99.90;;;;;;5054566;28;20454;-68
2021/06/19 04:22:44;;;;;;;11.10;10.17;;;33.30;99.90;;;;;;5072109;28;20450;-68
2021/06/19 04:25:14;;;;;;;12.00;11.07;;;33.30;99.90;;;;;;5072746;28;20418;-69
2021/06/19 04:27:44;;;;;;;11.90;11.00;;;33.60;99.90;;;;;;5073304;28;20426;-69
2021/06/19 04:30:14;;;;;;;10.60;9.90;;;33.60;99.90;;;;;;5054172;28;20481;-67
2021/06/19 04:32:43;;;;;;;17.73;16.00;;;34.00;99.90;;;;;;5072149;28;20492;-68
2021/06/19 04:35:14;;;;;;;11.67;10.77;;;34.20;99.90;;;;;;5072308;28;20426;-68
2021/06/19 04:37:44;;;;;;;11.73;10.77;;;34.20;99.90;;;;;;5072362;28;20434;-69
2021/06/19 04:40:18;;;;;;;10.80;10.00;;;34.00;99.90;;;;;;5072226;28;20856;-69
2021/06/19 04:42:55;;;;;;;11.17;10.30;;;34.60;99.90;;;;;;5071902;28;20958;-70
2021/06/19 04:45:24;;;;;;;12.03;10.97;;;35.20;99.90;;;;;;5072282;28;20836;-70
2021/06/19 04:47:57;;;;;;;10.63;9.80;;;35.60;99.90;;;;;;5072208;28;20476;-69
2021/06/19 04:50:25;;;;;;;11.77;10.87;;;35.40;99.90;;;;;;5071921;28;20455;-69
2021/06/19 04:52:55;;;;;;;11.10;10.23;;;35.40;99.90;;;;;;5071012;28;20419;-69
2021/06/19 04:55:23;;;;;;;10.87;9.97;;;35.50;99.90;;;;;;5071915;28;20604;-69
2021/06/19 04:57:54;;;;;;;11.13;10.10;;;35.50;99.90;;;;;;5053869;28;20434;-70
2021/06/19 05:00:24;;;;;;;11.53;10.67;;;36.10;99.90;;;;;;5071653;28;20468;-69
2021/06/19 05:02:52;;;;;;;11.53;10.57;;;36.70;99.90;;;;;;5071555;28;20480;-69
2021/06/19 05:05:23;;;;;;;10.93;10.13;;;36.60;99.90;;;;;;5071844;28;20792;-69
2021/06/19 05:07:51;;;;;;;10.87;10.07;;;36.20;99.90;;;;;;5071851;28;20418;-69
2021/06/19 05:10:21;;;;;;;10.40;9.60;;;36.10;99.90;;;;;;5053944;28;20474;-69
2021/06/19 05:12:49;;;;;;;10.37;9.43;;;36.10;99.90;;;;;;5071207;28;20492;-69
2021/06/19 05:15:23;;;;;;;11.83;10.33;;;36.30;99.90;;;;;;5071556;28;20458;-68
2021/06/19 05:17:53;;;;;;;10.83;10.00;;;36.60;99.90;;;;;;5071624;28;20791;-70
2021/06/19 05:20:22;;;;;;;12.33;11.33;;;36.40;99.90;;;;;;5071626;28;21260;-68
2021/06/19 05:22:50;;;;;;;11.23;10.13;;;36.90;99.90;;;;;;5070869;28;20434;-68
2021/06/19 05:25:18;;;;;;;11.33;10.30;;;37.70;99.90;;;;;;5071432;28;20557;-68
2021/06/19 05:27:48;;;;;;;11.17;10.17;;;36.50;99.90;;;;;;5071188;28;20450;-69
2021/06/19 05:30:17;;;;;;;11.57;10.57;;;37.40;99.90;;;;;;5071101;28;20467;-69
2021/06/19 05:32:46;;;;;;;11.73;10.37;;;37.80;99.90;;;;;;5071052;28;20947;-69
2021/06/19 05:35:14;;;;;;;11.53;10.63;;;38.00;99.90;;;;;;5053364;28;20510;-70
2021/06/19 05:37:42;;;;;;;12.10;11.20;;;38.00;99.90;;;;;;5071339;28;20936;-69
2021/06/19 05:40:11;;;;;;;12.60;11.30;;;35.80;99.90;;;;;;5071208;28;20431;-70
2021/06/19 05:42:39;;;;;;;12.10;11.10;;;33.70;99.90;;;;;;5070777;28;20462;-68
2021/06/19 05:45:11;;;;;;;11.63;10.73;;;31.50;99.90;;;;;;5071100;28;20434;-68
2021/06/19 05:47:39;;;;;;;13.33;12.23;;;29.80;99.90;;;;;;5071030;28;20761;-69
2021/06/19 05:50:09;;;;;;;13.30;12.30;;;29.20;99.90;;;;;;5070634;28;20477;-68
2021/06/19 05:52:37;;;;;;;12.93;11.87;;;28.90;99.90;;;;;;5070368;28;20908;-69
2021/06/19 05:55:06;;;;;;;14.00;12.80;;;28.60;99.90;;;;;;5070763;28;20838;-69
2021/06/19 05:57:34;;;;;;;12.77;11.67;;;28.40;99.90;;;;;;5070465;28;20422;-69
2021/06/19 06:00:04;;;;;;;12.53;11.40;;;28.20;99.90;;;;;;5070381;28;20435;-68
2021/06/19 06:02:42;;;;;;;11.50;10.50;;;28.10;99.90;;;;;;5070393;28;20414;-69
2021/06/19 06:05:11;;;;;;;12.73;11.70;;;28.00;99.90;;;;;;5069513;28;20928;-68
2021/06/19 06:07:40;;;;;;;14.00;12.53;;;27.90;99.90;;;;;;5070415;28;20419;-68
2021/06/19 06:10:09;;;;;;;12.90;11.80;;;28.00;99.90;;;;;;5070044;28;20527;-69
2021/06/19 06:12:37;;;;;;;13.37;12.27;;;28.00;99.90;;;;;;5070253;28;20425;-70
2021/06/19 06:15:08;;;;;;;12.87;11.83;;;28.10;99.90;;;;;;5070342;28;20418;-70
2021/06/19 06:17:37;;;;;;;13.87;12.47;;;28.20;99.90;;;;;;5070361;28;20410;-68
2021/06/19 06:20:08;;;;;;;12.50;11.40;;;28.30;99.90;;;;;;5070122;28;20439;-69
2021/06/19 06:22:36;;;;;;;12.93;11.90;;;28.40;99.90;;;;;;5070298;28;20807;-69
2021/06/19 06:25:06;;;;;;;14.80;13.60;;;28.40;99.90;;;;;;5070175;28;20433;-68
2021/06/19 06:27:34;;;;;;;11.67;10.77;;;28.60;99.90;;;;;;5070084;28;20473;-69
2021/06/19 06:30:03;;;;;;;12.90;11.80;;;28.60;99.90;;;;;;5051737;28;20474;-68
2021/06/19 06:32:33;;;;;;;11.67;10.60;;;28.70;99.90;;;;;;5069968;28;20427;-70
2021/06/19 06:35:02;;;;;;;11.93;10.70;;;28.70;99.90;;;;;;5069936;28;20410;-68
2021/06/19 06:37:31;;;;;;;11.70;10.80;;;28.40;99.90;;;;;;5069763;28;20419;-67
2021/06/19 06:39:59;;;;;;;11.90;11.00;;;28.40;99.90;;;;;;5051830;28;20454;-69
2021/06/19 06:42:27;;;;;;;12.93;11.93;;;28.50;99.90;;;;;;5051749;28;21036;-70
2021/06/19 06:44:55;;;;;;;12.40;11.30;;;28.70;99.90;;;;;;5069547;28;20442;-70
2021/06/19 06:47:23;;;;;;;13.50;12.20;;;28.90;99.90;;;;;;5069936;28;20829;-69
2021/06/19 06:49:52;;;;;;;11.10;10.20;;;28.80;99.90;;;;;;5069688;28;20466;-70
2021/06/19 06:52:20;;;;;;;12.30;11.20;;;28.90;99.90;;;;;;5069600;28;20472;-70
2021/06/19 06:54:49;;;;;;;11.83;10.90;;;28.90;99.90;;;;;;5069644;28;20501;-69
2021/06/19 06:57:17;;;;;;;11.00;10.00;;;29.10;99.90;;;;;;5069810;28;20426;-69
2021/06/19 06:59:46;;;;;;;17.57;10.73;;;29.20;99.90;;;;;;5069865;28;20439;-69
2021/06/19 07:02:14;;;;;;;11.50;10.40;;;29.10;99.90;;;;;;5051595;28;20422;-69
2021/06/19 07:04:42;;;;;;;9.93;9.23;;;29.30;99.90;;;;;;5051597;28;20496;-70
2021/06/19 07:07:10;;;;;;;11.37;10.47;;;29.50;99.90;;;;;;5069734;28;20453;-69
2021/06/19 07:09:38;;;;;;;10.00;9.13;;;29.70;99.90;;;;;;5069515;28;20458;-69
2021/06/19 07:12:09;;;;;;;11.33;10.10;;;29.90;99.90;;;;;;5069328;28;20419;-67
2021/06/19 07:14:38;;;;;;;10.20;9.40;;;29.70;99.90;;;;;;5069522;28;20840;-66
2021/06/19 07:17:08;;;;;;;11.80;10.80;;;29.90;99.90;;;;;;5075593;28;20512;-67
2021/06/19 07:19:37;;;;;;;11.13;10.23;;;29.90;99.90;;;;;;5076073;28;20491;-66
2021/06/19 07:22:07;;;;;;;11.20;10.30;;;29.80;99.90;;;;;;5075785;28;20429;-66
2021/06/19 07:24:35;;;;;;;12.43;11.40;;;29.80;99.90;;;;;;5058211;28;20454;-68
2021/06/19 07:27:04;;;;;;;10.53;9.83;;;29.70;99.90;;;;;;5076061;28;20423;-67
2021/06/19 07:29:34;;;;;;;11.53;10.43;;;29.80;99.90;;;;;;5075924;28;20440;-67
2021/06/19 07:32:03;;;;;;;11.10;10.20;;;30.00;99.90;;;;;;5076005;28;20426;-67
2021/06/19 07:34:31;;;;;;;16.10;9.90;;;30.20;99.90;;;;;;5075828;28;20432;-68
2021/06/19 07:37:00;;;;;;;9.67;8.90;;;30.40;99.90;;;;;;5076071;28;20449;-67
2021/06/19 07:39:28;;;;;;;10.77;9.77;;;30.30;99.90;;;;;;5075828;28;20928;-67
2021/06/19 07:41:57;;;;;;;11.80;10.90;;;30.50;99.90;;;;;;5075916;28;20425;-67
2021/06/19 07:44:26;;;;;;;12.03;11.10;;;30.50;99.90;;;;;;5075963;28;20472;-66
2021/06/19 07:46:56;;;;;;;10.90;9.63;;;30.80;99.90;;;;;;5058313;28;20438;-67
2021/06/19 07:49:25;;;;;;;11.10;10.10;;;30.70;99.90;;;;;;5075814;28;20465;-67
2021/06/19 07:51:54;;;;;;;11.00;10.00;;;30.60;99.90;;;;;;5076293;28;20651;-67
2021/06/19 07:54:22;;;;;;;11.67;10.67;;;30.60;99.90;;;;;;5075943;28;20414;-67
2021/06/19 07:56:50;;;;;;;10.90;10.10;;;30.70;99.90;;;;;;5076327;28;20429;-67
2021/06/19 07:59:18;;;;;;;11.47;10.57;;;30.80;99.90;;;;;;5077369;28;20886;-67
2021/06/19 08:01:46;;;;;;;12.83;11.60;;;31.00;99.90;;;;;;5076285;28;20426;-67
2021/06/19 08:04:16;;;;;;;11.13;10.23;;;31.20;99.90;;;;;;5076135;28;20406;-67
2021/06/19 08:06:44;;;;;;;12.47;11.43;;;31.30;99.90;;;;;;5077495;28;20418;-67
2021/06/19 08:09:12;;;;;;;11.80;10.90;;;31.50;99.90;;;;;;5077123;28;20426;-68
2021/06/19 08:11:40;;;;;;;12.97;11.70;;;31.50;99.90;;;;;;5077002;28;20476;-67
2021/06/19 08:14:08;;;;;;;11.50;10.50;;;31.70;99.90;;;;;;5077445;28;20406;-68
2021/06/19 08:16:37;;;;;;;12.10;11.10;;;31.50;99.90;;;;;;5075909;28;20472;-67
2021/06/19 08:19:05;;;;;;;11.87;10.97;;;31.50;99.90;;;;;;5076054;28;20413;-67
2021/06/19 08:21:34;;;;;;;12.03;11.13;;;31.60;99.90;;;;;;5079097;28;20446;-68
2021/06/19 08:24:03;;;;;;;10.77;9.97;;;31.80;99.90;;;;;;5077184;28;20430;-68
2021/06/19 08:26:31;;;;;;;10.30;9.50;;;31.80;99.90;;;;;;5075863;28;20426;-69
2021/06/19 08:28:59;;;;;;;11.33;10.30;;;31.90;99.90;;;;;;5071609;28;20414;-68
2021/06/19 08:31:27;;;;;;;11.50;10.57;;;31.70;99.90;;;;;;5072667;28;20835;-68
2021/06/19 08:33:55;;;;;;;10.70;9.90;;;31.80;99.90;;;;;;5072374;28;20411;-67
2021/06/19 08:36:23;;;;;;;10.60;9.80;;;32.10;99.90;;;;;;5071990;28;20423;-67
2021/06/19 08:38:53;;;;;;;12.20;11.07;;;32.30;99.90;;;;;;5053865;28;20531;-67
2021/06/19 08:41:21;;;;;;;12.90;11.60;;;32.40;99.90;;;;;;5071751;28;20435;-67
2021/06/19 08:43:49;;;;;;;11.40;10.50;;;32.10;99.90;;;;;;5071649;28;20425;-66
2021/06/19 08:46:19;;;;;;;10.63;9.73;;;32.10;99.90;;;;;;5072200;28;20456;-67
2021/06/19 08:48:51;;;;;;;10.93;9.93;;;32.40;99.90;;;;;;5072381;28;20409;-67
2021/06/19 08:51:20;;;;;;;11.83;10.90;;;32.70;99.90;;;;;;5071891;28;20493;-67
2021/06/19 08:53:50;;;;;;;11.17;9.50;;;33.10;99.90;;;;;;5071481;28;20516;-67
2021/06/19 08:56:21;;;;;;;10.27;9.40;;;33.20;99.90;;;;;;5072115;28;20422;-68
2021/06/19 08:58:49;;;;;;;13.20;12.10;;;33.30;99.90;;;;;;5072556;28;20422;-66
2021/06/19 09:01:18;;;;;;;11.30;10.40;;;33.20;99.90;;;;;;5071277;28;20434;-67
2021/06/19 09:03:47;;;;;;;10.80;10.00;;;33.20;99.90;;;;;;5052284;28;20809;-69
2021/06/19 09:06:20;;;;;;;9.40;8.63;;;33.20;99.90;;;;;;5052421;28;20526;-67
2021/06/19 09:09:03;;;;;;;10.20;9.07;;;33.30;99.90;;;;;;5072787;28;20509;-67
2021/06/19 09:11:35;;;;;;;9.70;9.00;;;33.50;99.90;;;;;;5072732;28;20481;-68
2021/06/19 09:14:05;;;;;;;10.23;9.43;;;33.50;99.90;;;;;;5073194;28;20867;-67
2021/06/19 09:16:34;;;;;;;9.50;8.83;;;33.50;99.90;;;;;;5072745;28;20429;-67
2021/06/19 09:19:03;;;;;;;9.97;9.17;;;33.50;99.90;;;;;;5072433;28;20927;-67
2021/06/19 09:21:34;;;;;;;10.10;9.30;;;33.60;99.90;;;;;;5072143;28;20444;-68
2021/06/19 09:24:04;;;;;;;9.83;9.03;;;33.80;99.90;;;;;;5072111;22;20850;-66
2021/06/19 09:26:33;;;;;;;10.37;9.13;;;33.90;99.90;;;;;;5052096;28;20496;-66
2021/06/19 09:29:09;;;;;;;9.10;8.40;;;34.10;99.90;;;;;;5052935;28;20415;-67
2021/06/19 09:31:45;;;;;;;8.43;7.70;;;34.20;99.90;;;;;;5053138;28;20881;-67
2021/06/19 09:34:15;;;;;;;8.40;7.80;;;34.00;99.90;;;;;;5053031;28;20983;-67
2021/06/19 09:36:49;;;;;;;9.83;9.03;;;33.90;99.90;;;;;;5051845;28;20493;-67
2021/06/19 09:39:20;;;;;;;9.03;8.13;;;33.70;99.90;;;;;;5033681;28;20531;-66
2021/06/19 09:41:52;;;;;;;9.30;8.33;;;33.70;99.90;;;;;;5051899;28;20430;-68
2021/06/19 09:44:37;;;;;;;9.10;8.40;;;33.60;99.90;;;;;;5051933;28;20429;-67
2021/06/19 09:47:06;;;;;;;8.30;7.70;;;33.80;99.90;;;;;;5051789;28;20431;-66
2021/06/19 09:49:38;;;;;;;9.47;8.70;;;34.20;99.90;;;;;;5052220;28;20518;-66
2021/06/19 09:52:07;;;;;;;8.00;7.43;;;34.70;99.90;;;;;;5051252;28;20463;-67
2021/06/19 09:54:41;;;;;;;7.97;7.30;;;34.90;99.90;;;;;;5051725;28;20419;-68
2021/06/19 09:57:11;;;;;;;7.77;7.10;;;34.80;99.90;;;;;;5051875;28;20420;-67
2021/06/19 09:59:40;;;;;;;8.67;8.07;;;34.80;99.90;;;;;;5051776;28;20417;-66
2021/06/19 10:02:18;;;;;;;8.90;8.20;;;34.90;99.90;;;;;;5051288;28;20949;-67
2021/06/19 10:04:51;;;;;;;9.33;8.67;;;35.00;99.90;;;;;;5051244;28;20415;-66
2021/06/19 10:07:19;;;;;;;8.57;7.87;;;35.30;99.90;;;;;;5051667;28;20422;-67
2021/06/19 10:09:49;;;;;;;12.20;11.20;;;35.60;99.90;;;;;;5051573;28;20439;-68
2021/06/19 10:12:20;;;;;;;8.73;8.03;;;35.40;99.90;;;;;;5051546;28;20459;-68
2021/06/19 10:14:50;;;;;;;8.37;7.77;;;35.40;99.90;;;;;;5051389;28;20465;-67
2021/06/19 10:17:21;;;;;;;9.00;8.30;;;35.30;99.90;;;;;;5051099;28;20949;-67
2021/06/19 10:19:51;;;;;;;8.83;8.10;;;35.60;99.90;;;;;;5051192;28;20440;-66
2021/06/19 10:22:19;;;;;;;8.00;7.40;;;35.90;99.90;;;;;;5050829;28;20506;-65
2021/06/19 10:24:50;;;;;;;7.50;7.00;;;35.80;99.90;;;;;;5051318;28;20450;-66
2021/06/19 10:27:21;;;;;;;8.07;7.47;;;35.60;99.90;;;;;;5051269;28;20922;-66
2021/06/19 10:29:52;;;;;;;11.43;10.53;;;35.70;99.90;;;;;;5050938;28;20562;-67
2021/06/19 10:32:43;;;;;;;8.27;7.70;;;35.60;99.90;;;;;;5050880;28;20566;-66
2021/06/19 10:35:14;;;;;;;7.47;6.97;;;35.40;99.90;;;;;;5051112;28;20421;-66
2021/06/19 10:37:43;;;;;;;8.00;7.30;;;35.50;99.90;;;;;;5051244;28;20431;-66
2021/06/19 10:40:23;;;;;;;8.47;7.77;;;35.50;99.90;;;;;;5050686;28;20443;-66
2021/06/19 10:42:54;;;;;;;8.63;8.00;;;35.40;99.90;;;;;;5050642;28;20422;-67
2021/06/19 10:45:24;;;;;;;8.03;7.43;;;35.50;99.90;;;;;;5050773;28;20440;-66
2021/06/19 10:48:07;;;;;;;8.50;7.80;;;35.60;99.90;;;;;;5032667;28;20432;-67
2021/06/19 10:50:42;;;;;;;8.53;7.93;;;35.90;99.90;;;;;;5050146;28;20545;-67
2021/06/19 10:53:12;;;;;;;8.57;7.87;;;36.00;99.90;;;;;;5051118;28;20553;-66
2021/06/19 10:55:57;;;;;;;9.30;8.60;;;36.20;99.90;;;;;;5050759;28;20415;-68
2021/06/19 10:58:30;;;;;;;6.60;6.10;;;36.40;99.90;;;;;;5050861;28;20481;-67
2021/06/19 11:01:00;;;;;;;7.00;6.50;;;36.30;99.90;;;;;;5050162;28;20446;-66
2021/06/19 11:03:47;;;;;;;5.70;5.30;;;36.30;99.90;;;;;;5032587;28;20431;-66
2021/06/19 11:06:21;;;;;;;7.67;7.17;;;35.90;99.90;;;;;;5050954;28;20463;-67
2021/06/19 11:09:01;;;;;;;6.37;5.97;;;36.00;99.90;;;;;;5050881;28;20419;-66
2021/06/19 11:11:49;;;;;;;6.53;5.93;;;36.20;99.90;;;;;;5050341;28;20890;-67
2021/06/19 11:15:04;;;;;;;6.47;5.93;;;36.20;99.90;;;;;;5050170;28;20515;-68
2021/06/19 11:17:44;;;;;;;6.77;6.27;;;35.90;99.90;;;;;;5050256;28;20795;-66
2021/06/19 11:20:27;;;;;;;6.27;5.77;;;35.70;99.90;;;;;;5050667;28;20492;-69
2021/06/19 11:23:02;;;;;;;6.23;5.83;;;35.80;99.90;;;;;;5050244;28;20845;-67
2021/06/19 11:28:30;;;;;;;6.80;6.30;;;36.10;99.90;;;;;;5048182;28;20526;-68
2021/06/19 11:31:05;;;;;;;7.00;6.47;;;36.20;99.90;;;;;;5050395;28;20505;-66
2021/06/19 11:33:52;;;;;;;7.40;6.80;;;36.50;99.90;;;;;;5049956;28;20466;-67
2021/06/19 11:36:34;;;;;;;7.00;6.40;;;36.80;99.90;;;;;;5050269;28;20427;-66
2021/06/19 11:39:15;;;;;;;6.87;6.37;;;37.00;99.90;;;;;;5051014;28;20846;-67
2021/06/19 11:41:49;;;;;;;7.67;7.00;;;37.20;99.90;;;;;;5050546;28;20446;-68
2021/06/19 11:44:20;;;;;;;7.93;7.33;;;37.00;99.90;;;;;;5050363;28;20426;-67
2021/06/19 11:46:56;;;;;;;7.13;6.53;;;36.70;99.90;;;;;;5050035;28;20461;-66
2021/06/19 11:49:32;;;;;;;7.80;7.20;;;36.40;99.90;;;;;;5050224;28;20429;-67
2021/06/19 11:52:02;;;;;;;7.80;7.20;;;35.80;99.90;;;;;;5050288;28;20425;-67
2021/06/19 11:54:30;;;;;;;6.83;6.40;;;35.50;99.90;;;;;;5050479;28;20415;-67
2021/06/19 11:56:59;;;;;;;7.97;7.37;;;35.40;99.90;;;;;;5050376;28;20431;-67
2021/06/19 11:59:31;;;;;;;10.37;9.00;;;35.60;99.90;;;;;;5032301;28;20430;-67
2021/06/19 12:02:00;;;;;;;8.00;7.30;;;36.20;99.90;;;;;;5031725;28;20547;-66
2021/06/19 12:04:31;;;;;;;7.43;6.83;;;36.70;99.90;;;;;;5053809;28;20477;-67
2021/06/19 12:07:01;;;;;;;8.57;7.87;;;36.80;99.90;;;;;;5053819;28;20427;-69
2021/06/19 12:09:31;;;;;;;8.27;7.47;;;36.20;99.90;;;;;;5053529;28;20419;-67
2021/06/19 12:12:01;;;;;;;7.60;7.00;;;36.00;99.90;;;;;;5053455;28;20933;-66
2021/06/19 12:14:31;;;;;;;7.90;7.30;;;35.80;99.90;;;;;;5053723;28;20472;-68
2021/06/19 12:17:02;;;;;;;8.77;8.07;;;35.90;99.90;;;;;;5053666;28;20431;-68
2021/06/19 12:19:33;;;;;;;8.37;7.67;;;36.10;99.90;;;;;;5053354;28;20419;-68
2021/06/19 12:22:03;;;;;;;7.17;6.60;;;36.00;99.90;;;;;;5053592;28;20420;-66
2021/06/19 12:24:33;;;;;;;7.87;7.27;;;35.80;99.90;;;;;;5053664;28;20441;-66
2021/06/19 12:27:15;;;;;;;8.10;7.40;;;35.40;99.90;;;;;;5053915;28;20454;-67
2021/06/19 12:29:45;;;;;;;8.27;7.57;;;35.20;99.90;;;;;;5053318;28;20522;-67
2021/06/19 12:32:27;;;;;;;8.33;7.73;;;35.20;99.90;;;;;;5053239;28;20549;-67
2021/06/19 12:34:58;;;;;;;8.40;7.60;;;35.40;99.90;;;;;;5053231;28;20423;-65
2021/06/19 12:37:29;;;;;;;8.50;7.90;;;35.40;99.90;;;;;;5053732;28;20435;-66
2021/06/19 12:39:58;;;;;;;9.50;8.80;;;35.40;99.90;;;;;;5054143;28;20437;-66
2021/06/19 12:42:38;;;;;;;9.10;8.40;;;35.40;99.90;;;;;;5053150;28;20789;-67
2021/06/19 12:45:13;;;;;;;8.83;8.07;;;35.80;99.90;;;;;;5053817;28;21010;-65
2021/06/19 12:47:45;;;;;;;9.70;9.07;;;36.10;99.90;;;;;;5053747;28;20477;-67
2021/06/19 12:50:16;;;;;;;8.97;8.23;;;35.90;99.90;;;;;;5035304;28;20451;-69
2021/06/19 12:52:59;;;;;;;8.67;8.07;;;35.90;99.90;;;;;;5035563;28;20815;-66
2021/06/19 12:55:28;;;;;;;9.63;8.67;;;35.90;99.90;;;;;;5053879;28;20433;-67